^^
Meteo Knjazevac Station Historical Data
Daily Summary for April 12, 2021 Units:  Both    English   Metric
Daily Weekly Monthly Yearly Custom
  High: Low: Average:
Temperature: 73.9 °F /  23.3 °C 50.9 °F /  10.5 °C 63.2 °F /  17.3 °C
Dew Point: 65.5 °F /  18.6 °C 50.6 °F /  10.3 °C 59.3 °F /  15.2 °C
Humidity: 99% 70.5% 88%
Wind Speed: 8mph /  12.9km/h - 1.7mph /  2.7km/h
Wind Gust: 16mph /  25.7km/h - -
Wind- - SW
Pressure: 30.11 in /  1019.5 hPa 30.05 in /  1017.5 hPa -
Precipitation: 0.01 in /  0.25 mm    
Historical Graphs
 
 
Tabular Data for April 12, 2021
Time Temperature Dew Point Pressure Wind Wind Speed Wind Gust Humidity Rainfall Rate (Hourly) solar Conditions
00:00 55 °F /  12.8 °C 54.5 °F /  12.5 °C 30.08in /  1018.5hPa Calm   2mph /  3.2km/h 98% 0.00in /  0mm 0 W/m2
00:10 54.7 °F /  12.6 °C 54.1 °F /  12.3 °C 30.09in /  1018.8hPa Calm   2mph /  3.2km/h 98% 0.00in /  0mm 0 W/m2
00:20 54.3 °F /  12.4 °C 53.8 °F /  12.1 °C 30.09in /  1018.8hPa NW 1mph /  1.6km/h 2mph /  3.2km/h 98% 0.00in /  0mm 0 W/m2
00:30 54.1 °F /  12.3 °C 53.9 °F /  12.2 °C 30.09in /  1018.8hPa West 2mph /  3.2km/h 3mph /  4.8km/h 99% 0.00in /  0mm 0 W/m2
00:40 54 °F /  12.2 °C 53.7 °F /  12.1 °C 30.09in /  1018.8hPa WNW 2mph /  3.2km/h 2mph /  3.2km/h 99% 0.00in /  0mm 0 W/m2
00:50 53.6 °F /  12 °C 53.3 °F /  11.8 °C 30.09in /  1018.8hPa West 1mph /  1.6km/h 3mph /  4.8km/h 99% 0.00in /  0mm 0 W/m2
01:00 53.6 °F /  12 °C 53.3 °F /  11.8 °C 30.09in /  1018.8hPa West 2mph /  3.2km/h 5mph /  8km/h 99% 0.00in /  0mm 0 W/m2
01:10 53.4 °F /  11.9 °C 53.1 °F /  11.7 °C 30.09in /  1018.8hPa Calm   3mph /  4.8km/h 99% 0.00in /  0mm 0 W/m2
01:20 53.2 °F /  11.8 °C 53 °F /  11.7 °C 30.09in /  1018.8hPa Calm   4mph /  6.4km/h 99% 0.00in /  0mm 0 W/m2
01:30 53.2 °F /  11.8 °C 53 °F /  11.7 °C 30.09in /  1018.8hPa Calm   2mph /  3.2km/h 99% 0.00in /  0mm 0 W/m2
01:40 53.2 °F /  11.8 °C 53 °F /  11.7 °C 30.09in /  1018.8hPa Calm   2mph /  3.2km/h 99% 0.00in /  0mm 0 W/m2
01:50 53.1 °F /  11.7 °C 52.8 °F /  11.6 °C 30.09in /  1018.8hPa Calm   2mph /  3.2km/h 99% 0.00in /  0mm 0 W/m2
02:00 52.9 °F /  11.6 °C 52.6 °F /  11.4 °C 30.09in /  1018.8hPa Calm   2mph /  3.2km/h 99% 0.00in /  0mm 0 W/m2
02:10 52.9 °F /  11.6 °C 52.6 °F /  11.4 °C 30.09in /  1018.8hPa NW 1mph /  1.6km/h 2mph /  3.2km/h 99% 0.00in /  0mm 0 W/m2
02:20 52.7 °F /  11.5 °C 52.4 °F /  11.3 °C 30.09in /  1018.8hPa Calm   2mph /  3.2km/h 99% 0.00in /  0mm 0 W/m2
02:30 52.5 °F /  11.4 °C 52.2 °F /  11.2 °C 30.09in /  1018.8hPa Calm   2mph /  3.2km/h 99% 0.00in /  0mm 0 W/m2
02:40 52.3 °F /  11.3 °C 52.1 °F /  11.2 °C 30.08in /  1018.5hPa NW 1mph /  1.6km/h 2mph /  3.2km/h 99% 0.00in /  0mm 0 W/m2
02:50 52.3 °F /  11.3 °C 52.1 °F /  11.2 °C 30.08in /  1018.5hPa Calm   2mph /  3.2km/h 99% 0.00in /  0mm 0 W/m2
03:00 52.3 °F /  11.3 °C 52.1 °F /  11.2 °C 30.08in /  1018.5hPa Calm   2mph /  3.2km/h 99% 0.00in /  0mm 0 W/m2
03:10 52.3 °F /  11.3 °C 52.1 °F /  11.2 °C 30.08in /  1018.5hPa NNW 1mph /  1.6km/h 2mph /  3.2km/h 99% 0.00in /  0mm 0 W/m2
03:20 52.5 °F /  11.4 °C 52.2 °F /  11.2 °C 30.08in /  1018.5hPa Calm   2mph /  3.2km/h 99% 0.00in /  0mm 0 W/m2
03:30 52.5 °F /  11.4 °C 52.2 °F /  11.2 °C 30.08in /  1018.5hPa Calm   3mph /  4.8km/h 99% 0.00in /  0mm 0 W/m2
03:40 52.5 °F /  11.4 °C 52.2 °F /  11.2 °C 30.08in /  1018.5hPa Calm   3mph /  4.8km/h 99% 0.00in /  0mm 0 W/m2
03:50 52.3 °F /  11.3 °C 52.1 °F /  11.2 °C 30.09in /  1018.8hPa East 1mph /  1.6km/h 5mph /  8km/h 99% 0.00in /  0mm 0 W/m2
04:00 52.3 °F /  11.3 °C 52.1 °F /  11.2 °C 30.09in /  1018.8hPa Calm   5mph /  8km/h 99% 0.00in /  0mm 0 W/m2
04:10 52.2 °F /  11.2 °C 51.9 °F /  11.1 °C 30.09in /  1018.8hPa Calm   3mph /  4.8km/h 99% 0.00in /  0mm 0 W/m2
04:20 51.8 °F /  11 °C 51.5 °F /  10.8 °C 30.09in /  1018.8hPa Calm   2mph /  3.2km/h 99% 0.00in /  0mm 0 W/m2
04:30 51.4 °F /  10.8 °C 51.2 °F /  10.7 °C 30.09in /  1018.8hPa Calm   1mph /  1.6km/h 99% 0.00in /  0mm 0 W/m2
04:40 51.4 °F /  10.8 °C 51.2 °F /  10.7 °C 30.09in /  1018.8hPa Calm     99% 0.00in /  0mm 0 W/m2
04:50 51.3 °F /  10.7 °C 51 °F /  10.6 °C 30.09in /  1018.8hPa Calm   2mph /  3.2km/h 99% 0.00in /  0mm 3 W/m2
05:00 51.3 °F /  10.7 °C 51 °F /  10.6 °C 30.09in /  1018.8hPa Calm   1mph /  1.6km/h 99% 0.00in /  0mm 7 W/m2
05:10 51.1 °F /  10.6 °C 50.8 °F /  10.4 °C 30.10in /  1019.2hPa Calm   2mph /  3.2km/h 99% 0.00in /  0mm 14 W/m2
05:20 51.1 °F /  10.6 °C 50.8 °F /  10.4 °C 30.10in /  1019.2hPa Calm   2mph /  3.2km/h 99% 0.00in /  0mm 22 W/m2
05:30 50.9 °F /  10.5 °C 50.6 °F /  10.3 °C 30.10in /  1019.2hPa Calm   2mph /  3.2km/h 99% 0.00in /  0mm 27 W/m2
05:40 50.9 °F /  10.5 °C 50.6 °F /  10.3 °C 30.10in /  1019.2hPa Calm   2mph /  3.2km/h 99% 0.00in /  0mm 36 W/m2
05:50 51.1 °F /  10.6 °C 50.8 °F /  10.4 °C 30.10in /  1019.2hPa Calm   3mph /  4.8km/h 99% 0.00in /  0mm 55 W/m2
06:00 51.4 °F /  10.8 °C 51.2 °F /  10.7 °C 30.10in /  1019.2hPa NNE 1mph /  1.6km/h 2mph /  3.2km/h 99% 0.00in /  0mm 86 W/m2
06:10 51.4 °F /  10.8 °C 51.2 °F /  10.7 °C 30.10in /  1019.2hPa Calm   2mph /  3.2km/h 99% 0.00in /  0mm 119 W/m2
06:20 51.5 °F /  10.8 °C 51.2 °F /  10.7 °C 30.10in /  1019.2hPa Calm   2mph /  3.2km/h 99% 0.00in /  0mm 136 W/m2
06:30 52 °F /  11.1 °C 51.7 °F /  10.9 °C 30.10in /  1019.2hPa Calm   2mph /  3.2km/h 99% 0.00in /  0mm 171 W/m2
06:40 52.3 °F /  11.3 °C 52.1 °F /  11.2 °C 30.10in /  1019.2hPa North 1mph /  1.6km/h 2mph /  3.2km/h 99% 0.00in /  0mm 205 W/m2
06:50 53.2 °F /  11.8 °C 53 °F /  11.7 °C 30.10in /  1019.2hPa Calm   5mph /  8km/h 99% 0.00in /  0mm 271 W/m2
07:00 53.8 °F /  12.1 °C 53.5 °F /  11.9 °C 30.11in /  1019.5hPa Calm   2mph /  3.2km/h 99% 0.00in /  0mm 189 W/m2
07:10 54.7 °F /  12.6 °C 54.4 °F /  12.4 °C 30.11in /  1019.5hPa SE 2mph /  3.2km/h 6mph /  9.7km/h 99% 0.00in /  0mm 275 W/m2
07:20 55.6 °F /  13.1 °C 55.3 °F /  12.9 °C 30.10in /  1019.2hPa SSE 1mph /  1.6km/h 5mph /  8km/h 99% 0.00in /  0mm 377 W/m2
07:30 56.5 °F /  13.6 °C 56.2 °F /  13.4 °C 30.11in /  1019.5hPa SSW 1mph /  1.6km/h 3mph /  4.8km/h 99% 0.00in /  0mm 415 W/m2
07:40 57.4 °F /  14.1 °C 57.1 °F /  13.9 °C 30.11in /  1019.5hPa East 2mph /  3.2km/h 4mph /  6.4km/h 99% 0.00in /  0mm 413 W/m2
07:50 58.1 °F /  14.5 °C 57.9 °F /  14.4 °C 30.11in /  1019.5hPa SSE 1mph /  1.6km/h 3mph /  4.8km/h 99% 0.00in /  0mm 427 W/m2
08:00 58.8 °F /  14.9 °C 58.5 °F /  14.7 °C 30.11in /  1019.5hPa South 1mph /  1.6km/h 3mph /  4.8km/h 99% 0.00in /  0mm 469 W/m2
08:10 59.8 °F /  15.4 °C 59.5 °F /  15.3 °C 30.11in /  1019.5hPa SSE 1mph /  1.6km/h 5mph /  8km/h 99% 0.00in /  0mm 506 W/m2
08:20 60.8 °F /  16 °C 60.2 °F /  15.7 °C 30.10in /  1019.2hPa SSE 2mph /  3.2km/h 7mph /  11.3km/h 98% 0.00in /  0mm 544 W/m2
08:30 61.7 °F /  16.5 °C 60 °F /  15.6 °C 30.10in /  1019.2hPa SSE 2mph /  3.2km/h 7mph /  11.3km/h 94% 0.00in /  0mm 584 W/m2
08:40 62.5 °F /  16.9 °C 60.4 °F /  15.8 °C 30.10in /  1019.2hPa SSW 2mph /  3.2km/h 4mph /  6.4km/h 93% 0.00in /  0mm 622 W/m2
08:50 63.7 °F /  17.6 °C 61 °F /  16.1 °C 30.10in /  1019.2hPa SSE 2mph /  3.2km/h 5mph /  8km/h 91% 0.00in /  0mm 650 W/m2
09:00 65.6 °F /  18.7 °C 62.2 °F /  16.8 °C 30.10in /  1019.2hPa SSW 3mph /  4.8km/h 7mph /  11.3km/h 89% 0.00in /  0mm 677 W/m2
09:10 67.3 °F /  19.6 °C 62.3 °F /  16.8 °C 30.10in /  1019.2hPa SW 6mph /  9.7km/h 8mph /  12.9km/h 84% 0.00in /  0mm 703 W/m2
09:20 68.5 °F /  20.3 °C 63.2 °F /  17.3 °C 30.10in /  1019.2hPa SSW 3mph /  4.8km/h 8mph /  12.9km/h 83% 0.00in /  0mm 626 W/m2
09:30 68.9 °F /  20.5 °C 62.5 °F /  16.9 °C 30.10in /  1019.2hPa SW 3mph /  4.8km/h 7mph /  11.3km/h 80% 0.00in /  0mm 356 W/m2
09:40 68.7 °F /  20.4 °C 62.3 °F /  16.8 °C 30.10in /  1019.2hPa SW 5mph /  8km/h 7mph /  11.3km/h 80% 0.00in /  0mm 576 W/m2
09:50 69.5 °F /  20.8 °C 63 °F /  17.2 °C 30.10in /  1019.2hPa SW 3mph /  4.8km/h 7mph /  11.3km/h 80% 0.00in /  0mm 723 W/m2
10:00 70.3 °F /  21.3 °C 62.8 °F /  17.1 °C 30.09in /  1018.8hPa SW 3mph /  4.8km/h 6mph /  9.7km/h 77% 0.00in /  0mm 819 W/m2
10:10 71.1 °F /  21.7 °C 63.9 °F /  17.7 °C 30.09in /  1018.8hPa SW 3mph /  4.8km/h 7mph /  11.3km/h 78% 0.00in /  0mm 839 W/m2
10:20 72 °F /  22.2 °C 63.6 °F /  17.6 °C 30.09in /  1018.8hPa SW 2mph /  3.2km/h 7mph /  11.3km/h 75% 0.00in /  0mm 857 W/m2
10:30 72.5 °F /  22.5 °C 64.2 °F /  17.9 °C 30.09in /  1018.8hPa SW 3mph /  4.8km/h 7mph /  11.3km/h 75% 0.00in /  0mm 875 W/m2
10:40 73.2 °F /  22.9 °C 64 °F /  17.8 °C 30.09in /  1018.8hPa SSW 3mph /  4.8km/h 7mph /  11.3km/h 73% 0.00in /  0mm 423 W/m2
10:50 73 °F /  22.8 °C 63.9 °F /  17.7 °C 30.09in /  1018.8hPa SSW 5mph /  8km/h 8mph /  12.9km/h 73% 0.00in /  0mm 906 W/m2
11:00 73.6 °F /  23.1 °C 64.4 °F /  18 °C 30.08in /  1018.5hPa South 3mph /  4.8km/h 6mph /  9.7km/h 73% 0.00in /  0mm 425 W/m2
11:30 73.9 °F /  23.3 °C 63.7 °F /  17.6 °C 30.08in /  1018.5hPa SSW 3.5mph /  5.6km/h 9mph /  14.5km/h 70.5% 0.00in /  0mm 707 W/m2
11:40 72.9 °F /  22.7 °C 64.1 °F /  17.8 °C 30.08in /  1018.5hPa SW 5mph /  8km/h 8mph /  12.9km/h 74% 0.00in /  0mm 157 W/m2
11:50 71.8 °F /  22.1 °C 64.2 °F /  17.9 °C 30.08in /  1018.5hPa WSW 3mph /  4.8km/h 7mph /  11.3km/h 77% 0.00in /  0mm 192 W/m2
12:00 72 °F /  22.2 °C 64.4 °F /  18 °C 30.08in /  1018.5hPa SW 3mph /  4.8km/h 7mph /  11.3km/h 77% 0.00in /  0mm 972 W/m2
12:10 73.5 °F /  23.1 °C 65.5 °F /  18.6 °C 30.07in /  1018.2hPa SW 6mph /  9.7km/h 9mph /  14.5km/h 76% 0.00in /  0mm 705 W/m2
12:20 73.8 °F /  23.2 °C 65 °F /  18.3 °C 30.08in /  1018.5hPa SW 6mph /  9.7km/h 12mph /  19.3km/h 74% 0.00in /  0mm 208 W/m2
12:30 72.3 °F /  22.4 °C 65.4 °F /  18.6 °C 30.07in /  1018.2hPa WSW 8mph /  12.9km/h 14mph /  22.5km/h 79% 0.00in /  0mm 949 W/m2
12:40 72.8 °F /  22.7 °C 64.4 °F /  18 °C 30.07in /  1018.2hPa West 6mph /  9.7km/h 14mph /  22.5km/h 75% 0.00in /  0mm 700 W/m2
12:50 73.1 °F /  22.8 °C 63.9 °F /  17.7 °C 30.07in /  1018.2hPa WSW 8mph /  12.9km/h 14mph /  22.5km/h 73% 0.00in /  0mm 974 W/m2
13:00 73.2 °F /  22.9 °C 64 °F /  17.8 °C 30.07in /  1018.2hPa West 8mph /  12.9km/h 16mph /  25.7km/h 73% 0.00in /  0mm 970 W/m2
13:10 72.5 °F /  22.5 °C 63 °F /  17.2 °C 30.07in /  1018.2hPa West 3mph /  4.8km/h 16mph /  25.7km/h 72% 0.00in /  0mm 288 W/m2
13:20 71.8 °F /  22.1 °C 63.5 °F /  17.5 °C 30.06in /  1017.8hPa WNW 7mph /  11.3km/h 12mph /  19.3km/h 75% 0.00in /  0mm 318 W/m2
13:30 71.4 °F /  21.9 °C 64.6 °F /  18.1 °C 30.07in /  1018.2hPa West 7mph /  11.3km/h 12mph /  19.3km/h 79% 0.00in /  0mm 782 W/m2
13:40 72.1 °F /  22.3 °C 65.3 °F /  18.5 °C 30.07in /  1018.2hPa West 5mph /  8km/h 13mph /  20.9km/h 79% 0.00in /  0mm 599 W/m2
13:50 72.5 °F /  22.5 °C 65.2 °F /  18.4 °C 30.07in /  1018.2hPa WNW 6mph /  9.7km/h 10mph /  16.1km/h 78% 0.00in /  0mm 351 W/m2
14:00 72 °F /  22.2 °C 63.6 °F /  17.6 °C 30.06in /  1017.8hPa WNW 6mph /  9.7km/h 12mph /  19.3km/h 75% 0.00in /  0mm 196 W/m2
14:10 71.1 °F /  21.7 °C 63.9 °F /  17.7 °C 30.06in /  1017.8hPa WNW 5mph /  8km/h 10mph /  16.1km/h 78% 0.00in /  0mm 162 W/m2
14:20 70.5 °F /  21.4 °C 63.7 °F /  17.6 °C 30.06in /  1017.8hPa WNW 2mph /  3.2km/h 8mph /  12.9km/h 79% 0.00in /  0mm 186 W/m2
14:30 70 °F /  21.1 °C 63.2 °F /  17.3 °C 30.06in /  1017.8hPa NW 3mph /  4.8km/h 7mph /  11.3km/h 79% 0.00in /  0mm 181 W/m2
14:40 70 °F /  21.1 °C 63.2 °F /  17.3 °C 30.06in /  1017.8hPa NW 2mph /  3.2km/h 7mph /  11.3km/h 79% 0.00in /  0mm 198 W/m2
14:50 70 °F /  21.1 °C 63.5 °F /  17.5 °C 30.06in /  1017.8hPa North 1mph /  1.6km/h 4mph /  6.4km/h 80% 0.00in /  0mm 344 W/m2
15:00 70.2 °F /  21.2 °C 63.3 °F /  17.4 °C 30.06in /  1017.8hPa NNE 2mph /  3.2km/h 6mph /  9.7km/h 79% 0.00in /  0mm 515 W/m2
15:10 70.5 °F /  21.4 °C 63.7 °F /  17.6 °C 30.06in /  1017.8hPa NE 2mph /  3.2km/h 8mph /  12.9km/h 79% 0.00in /  0mm 354 W/m2
15:20 70.9 °F /  21.6 °C 63.7 °F /  17.6 °C 30.06in /  1017.8hPa NNE 2mph /  3.2km/h 4mph /  6.4km/h 78% 0.00in /  0mm 177 W/m2
15:30 70.9 °F /  21.6 °C 64 °F /  17.8 °C 30.06in /  1017.8hPa Calm   5mph /  8km/h 79% 0.00in /  0mm 194 W/m2
15:40 70.9 °F /  21.6 °C 64.8 °F /  18.2 °C 30.06in /  1017.8hPa North 2mph /  3.2km/h 4mph /  6.4km/h 81% 0.00in /  0mm 279 W/m2
15:50 71.1 °F /  21.7 °C 64.6 °F /  18.1 °C 30.06in /  1017.8hPa North 3mph /  4.8km/h 6mph /  9.7km/h 80% 0.00in /  0mm 247 W/m2
16:00 71.1 °F /  21.7 °C 63.9 °F /  17.7 °C 30.06in /  1017.8hPa North 1mph /  1.6km/h 6mph /  9.7km/h 78% 0.00in /  0mm 217 W/m2
16:10 71.1 °F /  21.7 °C 63.5 °F /  17.5 °C 30.06in /  1017.8hPa NNW 1mph /  1.6km/h 3mph /  4.8km/h 77% 0.00in /  0mm 162 W/m2
16:20 70.9 °F /  21.6 °C 63.7 °F /  17.6 °C 30.06in /  1017.8hPa NNW 1mph /  1.6km/h 3mph /  4.8km/h 78% 0.00in /  0mm 133 W/m2
16:30 70.7 °F /  21.5 °C 64.2 °F /  17.9 °C 30.06in /  1017.8hPa NNW 1mph /  1.6km/h 2mph /  3.2km/h 80% 0.01in /  0.25mm 149 W/m2
16:40 70.5 °F /  21.4 °C 64 °F /  17.8 °C 30.06in /  1017.8hPa NNW 2mph /  3.2km/h 3mph /  4.8km/h 80% 0.00in /  0mm 183 W/m2
16:50 70.7 °F /  21.5 °C 64.6 °F /  18.1 °C 30.06in /  1017.8hPa Calm   3mph /  4.8km/h 81% 0.00in /  0mm 200 W/m2
17:00 70.5 °F /  21.4 °C 63.7 °F /  17.6 °C 30.06in /  1017.8hPa NNW 1mph /  1.6km/h 2mph /  3.2km/h 79% 0.00in /  0mm 222 W/m2
17:10 70.5 °F /  21.4 °C 64.4 °F /  18 °C 30.05in /  1017.5hPa West 5mph /  8km/h 6mph /  9.7km/h 81% 0.00in /  0mm 267 W/m2
17:20 70.3 °F /  21.3 °C 63.9 °F /  17.7 °C 30.05in /  1017.5hPa WNW 2mph /  3.2km/h 6mph /  9.7km/h 80% 0.00in /  0mm 301 W/m2
17:30 70.5 °F /  21.4 °C 64 °F /  17.8 °C 30.05in /  1017.5hPa Calm   2mph /  3.2km/h 80% 0.00in /  0mm 190 W/m2
17:40 70.7 °F /  21.5 °C 63.9 °F /  17.7 °C 30.05in /  1017.5hPa Calm   1mph /  1.6km/h 79% 0.00in /  0mm 115 W/m2
17:50 70.4 °F /  21.3 °C 63.9 °F /  17.7 °C 30.05in /  1017.5hPa West 1mph /  1.6km/h 3mph /  4.8km/h 80% 0.00in /  0mm 86 W/m2
18:00 70.3 °F /  21.3 °C 63.8 °F /  17.7 °C 30.05in /  1017.5hPa WSW 2mph /  3.2km/h 3mph /  4.8km/h 80% 0.00in /  0mm 136 W/m2
18:10 70.5 °F /  21.4 °C 64 °F /  17.8 °C 30.06in /  1017.8hPa WSW 2mph /  3.2km/h 5mph /  8km/h 80% 0.00in /  0mm 264 W/m2
18:20 70.9 °F /  21.6 °C 64.4 °F /  18 °C 30.06in /  1017.8hPa WSW 2mph /  3.2km/h 5mph /  8km/h 80% 0.00in /  0mm 185 W/m2
18:30 70.7 °F /  21.5 °C 63.9 °F /  17.7 °C 30.06in /  1017.8hPa WSW 1mph /  1.6km/h 3mph /  4.8km/h 79% 0.00in /  0mm 79 W/m2
18:40 70.6 °F /  21.4 °C 63.7 °F /  17.6 °C 30.06in /  1017.8hPa WSW 1mph /  1.6km/h 2mph /  3.2km/h 79% 0.00in /  0mm 166 W/m2
18:50 70.7 °F /  21.5 °C 63.9 °F /  17.7 °C 30.06in /  1017.8hPa Calm   2mph /  3.2km/h 79% 0.00in /  0mm 72 W/m2
19:00 70.5 °F /  21.4 °C 63.4 °F /  17.4 °C 30.06in /  1017.8hPa Calm   2mph /  3.2km/h 78% 0.00in /  0mm 62 W/m2
19:10 70.5 °F /  21.4 °C 63.7 °F /  17.6 °C 30.06in /  1017.8hPa SSW 2mph /  3.2km/h 3mph /  4.8km/h 79% 0.00in /  0mm 68 W/m2
19:20 70.4 °F /  21.3 °C 63.5 °F /  17.5 °C 30.06in /  1017.8hPa WSW 1mph /  1.6km/h 3mph /  4.8km/h 79% 0.00in /  0mm 45 W/m2
19:30 70.2 °F /  21.2 °C 63.7 °F /  17.6 °C 30.06in /  1017.8hPa SW 2mph /  3.2km/h 3mph /  4.8km/h 80% 0.00in /  0mm 36 W/m2
19:40 69.8 °F /  21 °C 64.4 °F /  18 °C 30.06in /  1017.8hPa SW 2mph /  3.2km/h 3mph /  4.8km/h 83% 0.00in /  0mm 18 W/m2
19:50 69.3 °F /  20.7 °C 64.2 °F /  17.9 °C 30.06in /  1017.8hPa WSW 1mph /  1.6km/h 3mph /  4.8km/h 84% 0.00in /  0mm 9 W/m2
20:00 68.9 °F /  20.5 °C 64.2 °F /  17.9 °C 30.07in /  1018.2hPa SW 1mph /  1.6km/h 2mph /  3.2km/h 85% 0.00in /  0mm 4 W/m2
20:10 68.5 °F /  20.3 °C 63.8 °F /  17.7 °C 30.07in /  1018.2hPa WSW 1mph /  1.6km/h 3mph /  4.8km/h 85% 0.00in /  0mm 2 W/m2
20:20 68 °F /  20 °C 63.3 °F /  17.4 °C 30.07in /  1018.2hPa SSW 2mph /  3.2km/h 3mph /  4.8km/h 85% 0.00in /  0mm 0 W/m2
20:30 67.1 °F /  19.5 °C 62.5 °F /  16.9 °C 30.07in /  1018.2hPa South 1mph /  1.6km/h 4mph /  6.4km/h 85% 0.00in /  0mm 0 W/m2
20:40 66.4 °F /  19.1 °C 61.8 °F /  16.6 °C 30.07in /  1018.2hPa SW 1mph /  1.6km/h 4mph /  6.4km/h 85% 0.00in /  0mm 0 W/m2
20:50 66 °F /  18.9 °C 61.4 °F /  16.3 °C 30.08in /  1018.5hPa Calm   2mph /  3.2km/h 85% 0.00in /  0mm 0 W/m2
21:00 65.8 °F /  18.8 °C 61.2 °F /  16.2 °C 30.08in /  1018.5hPa SSW 1mph /  1.6km/h 2mph /  3.2km/h 85% 0.00in /  0mm 0 W/m2
21:10 65.3 °F /  18.5 °C 60.7 °F /  15.9 °C 30.08in /  1018.5hPa SSE 2mph /  3.2km/h 3mph /  4.8km/h 85% 0.00in /  0mm 0 W/m2
21:20 64.8 °F /  18.2 °C 60.5 °F /  15.8 °C 30.08in /  1018.5hPa South 1mph /  1.6km/h 3mph /  4.8km/h 86% 0.00in /  0mm 0 W/m2
21:30 64.6 °F /  18.1 °C 60.3 °F /  15.7 °C 30.08in /  1018.5hPa Calm   1mph /  1.6km/h 86% 0.00in /  0mm 0 W/m2
21:40 64 °F /  17.8 °C 59.8 °F /  15.4 °C 30.08in /  1018.5hPa West 2mph /  3.2km/h 3mph /  4.8km/h 86% 0.00in /  0mm 0 W/m2
21:50 63.7 °F /  17.6 °C 60.1 °F /  15.6 °C 30.08in /  1018.5hPa Calm   2mph /  3.2km/h 88% 0.00in /  0mm 0 W/m2
22:00 63.2 °F /  17.3 °C 59.5 °F /  15.3 °C 30.08in /  1018.5hPa South 1mph /  1.6km/h 3mph /  4.8km/h 88% 0.00in /  0mm 0 W/m2
22:10 62.8 °F /  17.1 °C 59.5 °F /  15.3 °C 30.08in /  1018.5hPa SW 1mph /  1.6km/h 2mph /  3.2km/h 89% 0.00in /  0mm 0 W/m2
22:20 62.4 °F /  16.9 °C 59.4 °F /  15.2 °C 30.08in /  1018.5hPa Calm   2mph /  3.2km/h 90% 0.00in /  0mm 0 W/m2
22:30 61.9 °F /  16.6 °C 59.2 °F /  15.1 °C 30.09in /  1018.8hPa WSW 2mph /  3.2km/h 3mph /  4.8km/h 91% 0.00in /  0mm 0 W/m2
22:40 61.3 °F /  16.3 °C 59.3 °F /  15.2 °C 30.09in /  1018.8hPa SW 1mph /  1.6km/h 3mph /  4.8km/h 93% 0.00in /  0mm 0 W/m2
22:50 61 °F /  16.1 °C 59.3 °F /  15.2 °C 30.08in /  1018.5hPa Calm   2mph /  3.2km/h 94% 0.00in /  0mm 0 W/m2
23:00 60.6 °F /  15.9 °C 58.6 °F /  14.8 °C 30.08in /  1018.5hPa Calm   2mph /  3.2km/h 93% 0.00in /  0mm 0 W/m2
23:10 60.4 °F /  15.8 °C 58.7 °F /  14.8 °C 30.08in /  1018.5hPa Calm   3mph /  4.8km/h 94% 0.00in /  0mm 0 W/m2
23:20 60.1 °F /  15.6 °C 58.4 °F /  14.7 °C 30.08in /  1018.5hPa NW 1mph /  1.6km/h 2mph /  3.2km/h 94% 0.00in /  0mm 0 W/m2
23:30 59.7 °F /  15.4 °C 58 °F /  14.4 °C 30.08in /  1018.5hPa West 2mph /  3.2km/h 4mph /  6.4km/h 94% 0.00in /  0mm 0 W/m2
23:40 59.2 °F /  15.1 °C 57.7 °F /  14.3 °C 30.09in /  1018.8hPa Calm   5mph /  8km/h 95% 0.00in /  0mm 0 W/m2
23:50 59 °F /  15 °C 57.6 °F /  14.2 °C 30.08in /  1018.5hPa NW 2mph /  3.2km/h 3mph /  4.8km/h 95% 0.00in /  0mm 0 W/m2
Knjazevac, Serbia
Compliments of Weather Underground - 2 mb